Country
Station

 

Weather  for  Gallivare  -  Sweden    Sweden

  
4 °C (39 °F)
    
 
 

Current METAR for Gallivare is :

ESNG 180950Z 10003KT 040V140 9999 DZ FEW006 SCT010 BKN028 04/02 Q1008

 

This is a report for Gallivare - Sweden.
 
The report was made 23 minutes ago, at 09:50 UTC .
The wind was blowing at a speed of 1.5 meters per second (3.5 miles per hour) from east (100°), varying between northeast (040°) and southeast (140°).
 
The temperature was 4 °C (39 °F), with a dew-point at 2 °C (36 °F).
The temperature felt like 2 °C (37 °F).
 
The atmospheric pressure was 1008 hPa (29.77 inHg).
The relative humidity was 86.8%.
 
There were a few clouds at a height of 183 meters (600 feet), scattered clouds at a height of 305 meters (1000 feet) and broken clouds at a height of 853 meters (2800 feet).
 
The overall visibility was greater than 10 kilometers (6.2 miles).
 
Currently moderate drizzle.

 
 
 
 

Country :   A   B   C   D   E   F   G   H   I   J   K   L   M   N   O   P   Q   R   S   T   U   V   W   Y   Z

 

Site Info  |  Disclaimer  |  Credits  |  Privacy
Contact us  |  Add to favorites
© 2013-2019 METARs - All rights reserved